Time;durP1;ratioP1;P1;durP2;ratioP2;P2;SDS_P1;SDS_P2;PMS_P1;PMS_P2;Temp;Humidity;BMP_temperature;BMP_pressure;BME280_temperature;BME280_humidity;BME280_pressure;Samples;Min_cycle;Max_cycle;Signal;HPM_P1;HPM_P2
2023/07/15 00:02:45;;;;;;;3.55;3.00;;;22.80;64.80;;;;;;10285237;28;20030;-58
2023/07/15 00:07:46;;;;;;;3.55;3.03;;;22.80;64.70;;;;;;10295137;28;20409;-58
2023/07/15 00:12:48;;;;;;;5.47;3.22;;;22.80;64.80;;;;;;10289540;28;20033;-57
2023/07/15 00:17:48;;;;;;;4.05;2.78;;;22.80;64.70;;;;;;10311063;28;20034;-57
2023/07/15 00:22:50;;;;;;;3.65;2.60;;;22.80;64.60;;;;;;10285661;28;20718;-58
2023/07/15 00:27:51;;;;;;;4.13;2.90;;;22.80;64.60;;;;;;10285252;28;20049;-58
2023/07/15 00:32:51;;;;;;;3.78;2.83;;;22.80;64.60;;;;;;10285698;28;20073;-58
2023/07/15 00:37:53;;;;;;;4.63;2.90;;;22.80;64.60;;;;;;10284864;28;20077;-59
2023/07/15 00:43:50;;;;;;;4.28;2.95;;;22.80;64.60;;;;;;10289384;28;20019;-57
2023/07/15 00:49:03;;;;;;;3.78;2.63;;;22.80;64.50;;;;;;10283789;28;20027;-59
2023/07/15 00:54:04;;;;;;;3.65;2.50;;;22.80;64.40;;;;;;10284265;28;20031;-58
2023/07/15 00:59:08;;;;;;;4.13;3.17;;;22.80;64.30;;;;;;10284269;28;20027;-59
2023/07/15 01:04:09;;;;;;;3.35;2.50;;;22.80;64.40;;;;;;10282434;28;20419;-57
2023/07/15 01:09:09;;;;;;;3.65;2.75;;;22.80;64.30;;;;;;10304951;28;20027;-59
2023/07/15 01:14:12;;;;;;;4.00;2.67;;;22.70;64.20;;;;;;10291979;28;20101;-58
2023/07/15 01:19:14;;;;;;;4.20;2.90;;;22.70;64.20;;;;;;10300878;28;20451;-58
2023/07/15 01:24:15;;;;;;;4.43;2.63;;;22.70;63.90;;;;;;10283540;28;20082;-58
2023/07/15 01:29:15;;;;;;;2.92;2.28;;;22.70;63.90;;;;;;10283550;28;20085;-59
2023/07/15 01:34:16;;;;;;;4.25;2.58;;;22.80;63.90;;;;;;10283438;28;20027;-58
2023/07/15 01:39:17;;;;;;;4.03;3.15;;;22.80;63.80;;;;;;10285645;28;20525;-58
2023/07/15 01:44:18;;;;;;;5.07;2.42;;;22.70;63.70;;;;;;10283064;28;20038;-59
2023/07/15 01:49:18;;;;;;;2.92;2.42;;;22.70;63.70;;;;;;10282935;28;20114;-59
2023/07/15 01:54:19;;;;;;;3.20;2.38;;;22.70;63.60;;;;;;10282956;28;20374;-57
2023/07/15 01:59:20;;;;;;;3.35;2.30;;;22.80;63.70;;;;;;10286645;28;20134;-58
2023/07/15 02:04:21;;;;;;;4.55;2.47;;;22.70;63.40;;;;;;10290220;28;20137;-58
2023/07/15 02:09:21;;;;;;;3.70;2.30;;;22.70;63.50;;;;;;10303331;28;20026;-57
2023/07/15 02:14:22;;;;;;;3.15;2.10;;;22.70;63.50;;;;;;10299813;28;20114;-59
2023/07/15 02:19:23;;;;;;;3.63;2.50;;;22.70;63.40;;;;;;10306345;28;20055;-58
2023/07/15 02:24:23;;;;;;;3.00;2.22;;;22.70;63.50;;;;;;10289480;28;20031;-57
2023/07/15 02:29:24;;;;;;;3.38;2.30;;;22.70;63.50;;;;;;10302808;28;20102;-58
2023/07/15 02:34:25;;;;;;;3.95;2.20;;;22.70;63.50;;;;;;10289429;28;20054;-58
2023/07/15 02:39:26;;;;;;;3.33;2.50;;;22.70;63.60;;;;;;10289475;28;20110;-58
2023/07/15 02:44:27;;;;;;;2.88;2.35;;;22.70;63.50;;;;;;10289247;28;20034;-58
2023/07/15 02:49:28;;;;;;;4.55;3.00;;;22.70;63.60;;;;;;10289217;28;20050;-59
2023/07/15 02:54:28;;;;;;;3.83;2.38;;;22.70;63.70;;;;;;10297675;28;20042;-58
2023/07/15 02:59:29;;;;;;;2.60;2.08;;;22.70;63.60;;;;;;10289025;28;20098;-58
2023/07/15 03:04:30;;;;;;;3.35;2.25;;;22.70;63.60;;;;;;10303232;28;20066;-59
2023/07/15 03:09:30;;;;;;;3.97;2.65;;;22.70;63.60;;;;;;10311004;28;20101;-58
2023/07/15 03:14:31;;;;;;;2.88;2.50;;;22.70;63.60;;;;;;10327847;28;20152;-59
2023/07/15 03:19:32;;;;;;;2.63;2.03;;;22.70;63.60;;;;;;10328190;28;20026;-58
2023/07/15 03:24:34;;;;;;;3.00;2.42;;;22.70;63.60;;;;;;10325746;28;20129;-58
2023/07/15 03:29:36;;;;;;;3.00;2.05;;;22.70;63.60;;;;;;10325779;28;20023;-57
2023/07/15 03:34:36;;;;;;;3.95;2.90;;;22.70;63.60;;;;;;10327978;28;20023;-58
2023/07/15 03:39:37;;;;;;;3.10;2.05;;;22.70;63.60;;;;;;10327353;28;20405;-59
2023/07/15 03:44:38;;;;;;;3.00;2.17;;;22.70;63.60;;;;;;10327550;28;20484;-58
2023/07/15 03:49:38;;;;;;;3.33;2.08;;;22.70;63.60;;;;;;10324496;28;20029;-59
2023/07/15 03:54:39;;;;;;;3.75;2.35;;;22.70;63.60;;;;;;10319739;28;20093;-57
2023/07/15 03:59:40;;;;;;;4.07;2.92;;;22.70;63.70;;;;;;10321584;28;20050;-57
2023/07/15 04:04:41;;;;;;;3.30;2.10;;;22.60;63.80;;;;;;10321828;28;20515;-59
2023/07/15 04:09:41;;;;;;;4.55;2.50;;;22.60;63.80;;;;;;10323253;28;20007;-59
2023/07/15 04:14:42;;;;;;;2.70;2.10;;;22.60;63.80;;;;;;10318641;28;20034;-59
2023/07/15 04:19:43;;;;;;;3.58;2.25;;;22.60;63.80;;;;;;10322868;28;20552;-58
2023/07/15 04:24:44;;;;;;;3.28;2.65;;;22.60;63.80;;;;;;10320466;28;20090;-59
2023/07/15 04:29:44;;;;;;;3.80;2.20;;;22.60;63.80;;;;;;10321015;28;20045;-59
2023/07/15 04:34:49;;;;;;;2.72;2.00;;;22.60;63.80;;;;;;10295197;28;20115;-58
2023/07/15 04:39:50;;;;;;;3.25;2.30;;;22.60;63.80;;;;;;10285190;28;20027;-59
2023/07/15 04:44:51;;;;;;;2.75;1.83;;;22.60;63.60;;;;;;10284925;28;20106;-59
2023/07/15 04:49:51;;;;;;;3.42;2.10;;;22.60;63.40;;;;;;10309822;28;20050;-59
2023/07/15 04:54:52;;;;;;;3.95;2.45;;;22.60;63.40;;;;;;10316558;28;20026;-58
2023/07/15 04:59:53;;;;;;;3.38;2.20;;;22.60;63.30;;;;;;10308529;28;20062;-57
2023/07/15 05:04:54;;;;;;;8.35;2.83;;;22.70;63.70;;;;;;10324463;28;20105;-57
2023/07/15 05:09:55;;;;;;;8.57;3.15;;;22.80;63.70;;;;;;10310903;28;20609;-57
2023/07/15 05:14:55;;;;;;;6.60;2.30;;;22.90;63.60;;;;;;10298482;28;20050;-56
2023/07/15 05:19:56;;;;;;;9.02;2.85;;;23.00;63.60;;;;;;10295169;28;20538;-56
2023/07/15 05:24:57;;;;;;;11.07;3.30;;;23.00;63.90;;;;;;10283541;28;20081;-55
2023/07/15 05:29:57;;;;;;;15.25;3.95;;;23.00;64.00;;;;;;10283492;28;20157;-57
2023/07/15 05:34:58;;;;;;;11.77;3.63;;;23.10;64.10;;;;;;10283243;28;20027;-57
2023/07/15 05:39:59;;;;;;;13.10;2.83;;;23.00;64.20;;;;;;10283248;28;20034;-58
2023/07/15 05:44:59;;;;;;;8.35;2.83;;;22.90;64.30;;;;;;10283479;28;20035;-56
2023/07/15 05:50:01;;;;;;;5.50;2.40;;;22.90;64.40;;;;;;10292821;28;20094;-58
2023/07/15 05:55:04;;;;;;;5.95;2.50;;;22.90;64.50;;;;;;10283352;28;20471;-56
2023/07/15 06:00:08;;;;;;;9.45;3.53;;;22.80;64.20;;;;;;10283279;28;20027;-57
2023/07/15 06:05:09;;;;;;;8.55;2.88;;;22.90;64.60;;;;;;10282635;28;20054;-57
2023/07/15 06:10:10;;;;;;;8.20;2.35;;;22.80;64.40;;;;;;10297832;28;20017;-57
2023/07/15 06:15:11;;;;;;;8.75;2.65;;;22.80;64.40;;;;;;10299156;28;20361;-57
2023/07/15 06:20:12;;;;;;;8.10;2.80;;;22.80;64.50;;;;;;10291948;28;20146;-57
2023/07/15 06:25:13;;;;;;;8.93;3.25;;;22.80;64.40;;;;;;10282447;28;20071;-57
2023/07/15 06:30:14;;;;;;;16.02;3.88;;;22.80;64.50;;;;;;10282294;28;20031;-60
2023/07/15 06:35:15;;;;;;;13.85;3.67;;;22.80;64.50;;;;;;10282418;28;20027;-58
2023/07/15 06:40:17;;;;;;;7.47;3.22;;;22.80;64.70;;;;;;10282191;28;20105;-58
2023/07/15 06:45:22;;;;;;;8.77;3.15;;;22.90;64.90;;;;;;10285962;28;20047;-58
2023/07/15 06:50:23;;;;;;;15.20;3.58;;;22.80;64.60;;;;;;10289617;28;20023;-61
2023/07/15 06:55:24;;;;;;;14.27;3.70;;;22.90;64.70;;;;;;10314509;28;20116;-58
2023/07/15 07:00:27;;;;;;;10.10;2.92;;;22.90;64.90;;;;;;10300844;28;20054;-58
2023/07/15 07:05:27;;;;;;;11.23;3.50;;;22.90;64.80;;;;;;10298731;28;20058;-58
2023/07/15 07:10:28;;;;;;;9.35;3.35;;;22.90;64.60;;;;;;10310923;28;20418;-57
2023/07/15 07:15:29;;;;;;;14.60;3.83;;;22.90;64.60;;;;;;10306732;28;20514;-57
2023/07/15 07:20:30;;;;;;;13.90;3.67;;;22.90;64.70;;;;;;10295344;28;20114;-61
2023/07/15 07:25:31;;;;;;;16.10;4.15;;;22.90;64.90;;;;;;10287912;28;20560;-59
2023/07/15 07:30:31;;;;;;;15.40;4.82;;;23.00;65.00;;;;;;10298384;28;20022;-57
2023/07/15 07:35:32;;;;;;;13.35;3.35;;;23.00;65.10;;;;;;10317095;28;20157;-57
2023/07/15 07:40:33;;;;;;;19.58;4.05;;;23.00;65.40;;;;;;10315516;28;20438;-57
2023/07/15 07:45:34;;;;;;;15.45;4.55;;;23.00;65.30;;;;;;10311326;28;20038;-57
2023/07/15 07:50:35;;;;;;;23.83;4.90;;;23.00;65.30;;;;;;10313868;28;20078;-58
2023/07/15 07:55:36;;;;;;;14.52;3.60;;;23.00;65.40;;;;;;10310943;28;20126;-58
2023/07/15 08:00:37;;;;;;;13.18;3.67;;;23.10;65.40;;;;;;10324879;28;20080;-55
2023/07/15 08:05:43;;;;;;;16.48;3.38;;;23.10;65.70;;;;;;10294062;28;20054;-58
2023/07/15 08:10:44;;;;;;;13.43;4.00;;;23.10;65.70;;;;;;10309931;28;20115;-57
2023/07/15 08:15:44;;;;;;;14.18;3.95;;;23.20;66.90;;;;;;10312116;28;20034;-56
2023/07/15 08:20:45;;;;;;;11.50;3.97;;;23.20;65.80;;;;;;10315787;28;20506;-59
2023/07/15 08:25:46;;;;;;;13.77;2.80;;;23.20;66.20;;;;;;10311893;28;20548;-60
2023/07/15 08:30:46;;;;;;;6.50;2.72;;;23.10;65.90;;;;;;10284006;28;20019;-56
2023/07/15 08:35:47;;;;;;;8.35;3.58;;;23.20;65.90;;;;;;10300157;28;20388;-57
2023/07/15 08:40:50;;;;;;;11.05;3.42;;;23.20;65.90;;;;;;10314593;28;20037;-59
2023/07/15 08:45:55;;;;;;;11.30;3.20;;;23.20;65.90;;;;;;10318672;28;20042;-61
2023/07/15 08:50:57;;;;;;;7.85;2.65;;;23.20;65.90;;;;;;10284052;28;20019;-57
2023/07/15 08:55:58;;;;;;;7.07;2.50;;;23.20;66.10;;;;;;10293006;28;20110;-58
2023/07/15 09:00:59;;;;;;;5.95;2.95;;;23.30;71.40;;;;;;10284595;28;20561;-57
2023/07/15 09:06:01;;;;;;;5.72;2.88;;;23.40;70.60;;;;;;10308846;28;20050;-58
2023/07/15 09:11:05;;;;;;;5.85;2.70;;;23.40;70.20;;;;;;10299136;28;20021;-58
2023/07/15 09:16:05;;;;;;;5.30;2.30;;;23.40;70.30;;;;;;10317802;28;20033;-57
2023/07/15 09:21:14;;;;;;;7.00;2.92;;;23.40;70.90;;;;;;10289313;28;20025;-58
2023/07/15 09:26:15;;;;;;;4.97;2.05;;;23.40;70.00;;;;;;10297114;28;20157;-58
2023/07/15 09:31:25;;;;;;;5.00;2.40;;;23.30;69.90;;;;;;10306287;28;20029;-58
2023/07/15 09:36:31;;;;;;;8.75;2.53;;;23.30;69.40;;;;;;10304869;28;20043;-58
2023/07/15 09:41:32;;;;;;;7.28;2.20;;;23.30;69.30;;;;;;10296727;28;20046;-58
2023/07/15 09:46:33;;;;;;;9.48;2.60;;;23.30;69.10;;;;;;10310127;28;20030;-57
2023/07/15 09:51:35;;;;;;;10.93;2.60;;;23.40;70.70;;;;;;10301890;28;20023;-58
2023/07/15 09:56:41;;;;;;;7.15;2.63;;;23.40;69.40;;;;;;10300879;28;20100;-58
2023/07/15 10:01:53;;;;;;;9.00;2.58;;;23.30;68.00;;;;;;10285991;28;20428;-57
2023/07/15 10:06:54;;;;;;;11.63;2.78;;;23.40;68.90;;;;;;10282506;28;20122;-58
2023/07/15 10:11:55;;;;;;;6.88;2.60;;;23.40;68.30;;;;;;10292457;28;20043;-57
2023/07/15 10:17:16;;;;;;;8.75;2.58;;;23.30;68.80;;;;;;10293779;28;20031;-55
2023/07/15 10:22:18;;;;;;;7.78;2.72;;;23.30;69.30;;;;;;10297619;28;20035;-58
2023/07/15 10:27:19;;;;;;;7.85;2.67;;;23.50;69.30;;;;;;10303666;28;20035;-57
2023/07/15 10:32:20;;;;;;;8.20;2.17;;;23.50;69.20;;;;;;10292133;28;20050;-60
2023/07/15 10:37:21;;;;;;;5.15;2.03;;;23.60;69.00;;;;;;10307565;28;20399;-61
2023/07/15 10:42:21;;;;;;;6.78;2.35;;;23.70;68.80;;;;;;10325960;28;20102;-59
2023/07/15 10:47:22;;;;;;;14.27;2.20;;;23.70;68.80;;;;;;10327745;28;20535;-61
2023/07/15 10:52:24;;;;;;;7.70;2.85;;;23.70;68.70;;;;;;10328613;28;20105;-57
2023/07/15 10:57:26;;;;;;;4.93;2.85;;;23.60;68.80;;;;;;10323514;28;20457;-58
2023/07/15 11:02:27;;;;;;;5.70;2.65;;;23.50;69.20;;;;;;10314164;28;20037;-57
2023/07/15 11:07:28;;;;;;;5.63;2.65;;;23.40;69.80;;;;;;10293394;28;20038;-58
2023/07/15 11:12:32;;;;;;;6.30;2.67;;;23.40;69.50;;;;;;10292476;28;20106;-60
2023/07/15 11:17:38;;;;;;;7.97;2.25;;;23.40;69.00;;;;;;10312385;28;20027;-58
2023/07/15 11:22:39;;;;;;;5.80;2.55;;;23.40;69.20;;;;;;10284802;28;20077;-57
2023/07/15 11:27:39;;;;;;;5.40;2.10;;;23.40;69.10;;;;;;10300538;28;20089;-58
2023/07/15 11:32:40;;;;;;;6.32;2.65;;;23.40;69.10;;;;;;10314898;28;20470;-58
2023/07/15 11:37:46;;;;;;;5.47;2.20;;;23.40;69.10;;;;;;10311144;28;20169;-57
2023/07/15 11:42:48;;;;;;;5.65;2.30;;;23.40;69.00;;;;;;10292549;28;20023;-57
2023/07/15 11:47:53;;;;;;;3.88;2.75;;;23.40;69.00;;;;;;10285035;28;20034;-58
2023/07/15 11:52:56;;;;;;;6.93;2.40;;;23.40;68.60;;;;;;10284970;28;20019;-58
2023/07/15 11:57:57;;;;;;;3.95;1.88;;;23.40;68.70;;;;;;10285061;28;20033;-57
2023/07/15 12:02:57;;;;;;;3.35;1.98;;;23.40;67.90;;;;;;10302357;28;20043;-57
2023/07/15 12:07:58;;;;;;;4.78;2.70;;;23.40;67.60;;;;;;10304774;28;20182;-57
2023/07/15 12:12:59;;;;;;;4.63;2.55;;;23.40;67.50;;;;;;10284488;28;20098;-58
2023/07/15 12:17:59;;;;;;;5.85;1.75;;;23.40;67.80;;;;;;10309682;28;20836;-57
2023/07/15 12:23:00;;;;;;;8.40;2.47;;;23.40;67.10;;;;;;10283837;28;20149;-56
2023/07/15 12:28:01;;;;;;;5.07;1.92;;;23.40;67.30;;;;;;10283510;28;20109;-57
2023/07/15 12:33:01;;;;;;;5.43;2.00;;;23.40;67.40;;;;;;10283098;28;20118;-58
2023/07/15 12:38:02;;;;;;;5.85;2.20;;;23.50;67.10;;;;;;10297775;28;20058;-61
2023/07/15 12:43:03;;;;;;;4.40;2.47;;;23.50;67.10;;;;;;10309535;28;20113;-60
2023/07/15 12:48:04;;;;;;;3.95;1.80;;;23.50;67.10;;;;;;10298322;28;20089;-58
2023/07/15 12:53:05;;;;;;;4.80;1.70;;;23.50;67.10;;;;;;10306700;28;20035;-59
2023/07/15 12:58:06;;;;;;;5.20;2.42;;;23.50;67.60;;;;;;10307083;28;20058;-58
2023/07/15 13:03:07;;;;;;;3.42;1.77;;;23.50;67.00;;;;;;10311612;28;20027;-58
2023/07/15 13:08:07;;;;;;;5.57;2.15;;;23.50;66.90;;;;;;10309903;28;20038;-61
2023/07/15 13:13:08;;;;;;;3.10;1.70;;;23.50;66.90;;;;;;10319888;28;20655;-58
2023/07/15 13:18:09;;;;;;;4.80;2.35;;;23.50;66.70;;;;;;10293718;28;20035;-58
2023/07/15 13:23:10;;;;;;;3.97;2.10;;;23.50;66.50;;;;;;10295995;28;20113;-58
2023/07/15 13:28:10;;;;;;;4.47;1.80;;;23.50;66.50;;;;;;10282139;28;20110;-59
2023/07/15 13:33:11;;;;;;;7.75;2.22;;;23.50;66.40;;;;;;10313333;28;20018;-57
2023/07/15 13:38:12;;;;;;;6.55;2.00;;;23.60;66.20;;;;;;10293146;28;20478;-60
2023/07/15 13:43:12;;;;;;;4.82;1.98;;;23.60;66.30;;;;;;10282582;28;20027;-61
2023/07/15 13:48:13;;;;;;;3.58;1.98;;;23.50;66.10;;;;;;10283349;28;20102;-58
2023/07/15 13:53:14;;;;;;;6.72;2.22;;;23.60;66.10;;;;;;10285476;28;20118;-57
2023/07/15 13:58:14;;;;;;;5.03;2.33;;;23.60;66.10;;;;;;10291259;28;20130;-58
2023/07/15 14:03:15;;;;;;;4.13;2.13;;;23.60;66.00;;;;;;10291154;28;20019;-58
2023/07/15 14:08:19;;;;;;;4.53;2.03;;;23.60;66.10;;;;;;10303742;28;20734;-58
2023/07/15 14:13:20;;;;;;;5.28;1.95;;;23.50;66.40;;;;;;10291065;28;20015;-61
2023/07/15 14:18:21;;;;;;;9.23;2.58;;;23.60;66.30;;;;;;10289580;28;20462;-61
2023/07/15 14:23:21;;;;;;;8.38;2.47;;;23.60;66.80;;;;;;10290272;28;20031;-61
2023/07/15 14:28:22;;;;;;;7.90;3.17;;;23.60;66.30;;;;;;10315486;28;20092;-62
2023/07/15 14:33:23;;;;;;;8.05;2.72;;;23.60;66.60;;;;;;10330189;28;20450;-59
2023/07/15 14:38:23;;;;;;;4.40;2.45;;;23.60;66.70;;;;;;10330298;28;20421;-59
2023/07/15 14:43:24;;;;;;;13.00;3.08;;;23.60;66.20;;;;;;10329969;28;20168;-57
2023/07/15 14:48:26;;;;;;;15.65;3.35;;;23.70;66.70;;;;;;10329735;28;20034;-58
2023/07/15 14:53:27;;;;;;;27.33;5.18;;;23.70;66.70;;;;;;10329404;28;20026;-57
2023/07/15 14:58:27;;;;;;;23.55;4.78;;;23.80;67.10;;;;;;10329128;28;20513;-57
2023/07/15 15:03:28;;;;;;;22.33;4.88;;;23.70;66.70;;;;;;10329071;28;20029;-59
2023/07/15 15:08:29;;;;;;;30.90;4.95;;;23.70;67.00;;;;;;10325629;28;20037;-58
2023/07/15 15:13:29;;;;;;;22.05;4.68;;;23.80;66.90;;;;;;10325029;28;20019;-61
2023/07/15 15:18:30;;;;;;;28.08;5.25;;;23.80;66.40;;;;;;10328433;28;20032;-61
2023/07/15 15:23:31;;;;;;;17.45;4.60;;;23.70;67.10;;;;;;10328035;28;20401;-58
2023/07/15 15:28:31;;;;;;;30.15;15.10;;;23.70;67.30;;;;;;10328325;28;20608;-57
2023/07/15 15:33:32;;;;;;;22.27;10.35;;;23.80;70.30;;;;;;10306433;28;20030;-58
2023/07/15 15:38:33;;;;;;;20.50;6.85;;;24.20;71.20;;;;;;10309392;28;20073;-57
2023/07/15 15:43:33;;;;;;;19.15;8.60;;;24.40;69.30;;;;;;10316233;28;20055;-57
2023/07/15 15:48:34;;;;;;;21.95;5.50;;;24.10;69.40;;;;;;10307163;28;20034;-59
2023/07/15 15:53:35;;;;;;;15.85;7.35;;;23.90;68.00;;;;;;10324827;28;20029;-59
2023/07/15 15:58:36;;;;;;;21.67;12.05;;;23.90;68.60;;;;;;10298778;28;20050;-57
2023/07/15 16:03:36;;;;;;;23.52;10.50;;;24.10;70.10;;;;;;10321253;28;20108;-59
2023/07/15 16:08:37;;;;;;;21.42;12.95;;;24.20;68.90;;;;;;10320747;28;20069;-59
2023/07/15 16:13:38;;;;;;;28.73;21.27;;;24.20;69.30;;;;;;10317084;28;20580;-57
2023/07/15 16:18:39;;;;;;;29.02;20.02;;;24.20;69.00;;;;;;10308685;28;20089;-58
2023/07/15 16:23:39;;;;;;;17.23;15.23;;;24.10;68.60;;;;;;10324054;28;20026;-58
2023/07/15 16:28:40;;;;;;;15.95;11.45;;;24.00;68.70;;;;;;10324019;28;20161;-58
2023/07/15 16:33:41;;;;;;;19.50;11.07;;;24.00;68.50;;;;;;10323087;28;20498;-59
2023/07/15 16:38:41;;;;;;;21.50;10.68;;;23.90;69.50;;;;;;10325056;28;20054;-56
2023/07/15 16:43:51;;;;;;;18.83;10.30;;;24.00;68.80;;;;;;10534335;27;20424;-57
2023/07/15 16:48:51;;;;;;;15.68;8.77;;;23.90;68.80;;;;;;10494674;28;20079;-54
2023/07/15 16:53:52;;;;;;;21.67;8.50;;;23.90;69.00;;;;;;10505508;28;20559;-54
2023/07/15 16:58:53;;;;;;;19.88;9.90;;;23.90;68.90;;;;;;10521586;28;20034;-55
2023/07/15 17:03:53;;;;;;;17.27;7.93;;;23.90;69.00;;;;;;10516222;28;20151;-55
2023/07/15 17:08:54;;;;;;;17.55;7.57;;;23.80;69.00;;;;;;10478529;28;20108;-54
2023/07/15 17:13:54;;;;;;;13.20;7.15;;;23.80;69.00;;;;;;10472957;28;20545;-55
2023/07/15 17:18:55;;;;;;;12.45;7.35;;;23.70;69.00;;;;;;10455316;28;20052;-53
2023/07/15 17:23:56;;;;;;;10.63;7.63;;;23.70;69.10;;;;;;10479239;28;20103;-54
2023/07/15 17:28:56;;;;;;;12.55;7.45;;;23.70;69.40;;;;;;10477921;28;20028;-53
2023/07/15 17:33:57;;;;;;;14.30;6.80;;;23.70;69.40;;;;;;10478668;28;20147;-53
2023/07/15 17:38:58;;;;;;;14.70;7.70;;;23.70;69.60;;;;;;10462603;28;20048;-54
2023/07/15 17:43:58;;;;;;;11.57;7.47;;;23.70;69.70;;;;;;10445191;28;20019;-54
2023/07/15 17:48:59;;;;;;;11.60;6.70;;;23.70;70.10;;;;;;10460820;28;20040;-54
2023/07/15 17:54:00;;;;;;;12.93;6.55;;;23.70;69.80;;;;;;10464103;28;20396;-54
2023/07/15 17:59:00;;;;;;;10.48;6.10;;;23.70;69.60;;;;;;10450230;28;20130;-55
2023/07/15 18:04:02;;;;;;;9.25;5.95;;;23.70;69.60;;;;;;10449151;28;20056;-53
2023/07/15 18:09:08;;;;;;;10.95;5.93;;;23.70;69.50;;;;;;10449388;28;20096;-54
2023/07/15 18:14:09;;;;;;;10.80;7.10;;;23.70;69.70;;;;;;10437831;28;20053;-54
2023/07/15 18:19:09;;;;;;;10.85;5.25;;;23.70;69.30;;;;;;10432913;28;20859;-54
2023/07/15 18:24:10;;;;;;;9.80;5.60;;;23.70;69.80;;;;;;10443207;28;20019;-54
2023/07/15 18:29:11;;;;;;;9.90;5.43;;;23.70;70.10;;;;;;10446453;28;20036;-53
2023/07/15 18:34:11;;;;;;;10.52;5.40;;;23.70;70.30;;;;;;10446767;28;20040;-54
2023/07/15 18:39:12;;;;;;;11.57;6.45;;;23.80;70.80;;;;;;10441658;28;20448;-54
2023/07/15 18:44:13;;;;;;;12.23;5.47;;;23.80;70.80;;;;;;10443621;28;20092;-54
2023/07/15 18:49:14;;;;;;;10.02;4.82;;;23.70;70.60;;;;;;10441148;28;20716;-55
2023/07/15 18:54:15;;;;;;;7.88;4.75;;;23.70;70.60;;;;;;10440258;28;20082;-55
2023/07/15 18:59:16;;;;;;;8.68;4.22;;;23.70;70.70;;;;;;10438525;28;20036;-54
2023/07/15 19:04:17;;;;;;;8.48;5.00;;;23.70;70.80;;;;;;10405126;28;20120;-56
2023/07/15 19:09:18;;;;;;;6.72;4.15;;;23.70;70.50;;;;;;10443205;28;20024;-56
2023/07/15 19:14:19;;;;;;;9.85;4.75;;;23.70;70.50;;;;;;10427828;28;20581;-57
2023/07/15 19:19:19;;;;;;;11.13;4.85;;;23.70;70.60;;;;;;10420521;28;20031;-57
2023/07/15 19:24:20;;;;;;;6.15;3.90;;;23.70;70.60;;;;;;10429372;28;20082;-61
2023/07/15 19:29:21;;;;;;;8.00;4.03;;;23.70;70.50;;;;;;10430699;28;20033;-61
2023/07/15 19:34:21;;;;;;;11.88;3.72;;;23.60;70.40;;;;;;10428503;28;20028;-61
2023/07/15 19:39:22;;;;;;;8.93;4.03;;;23.70;70.40;;;;;;10410430;28;20144;-58
2023/07/15 19:44:22;;;;;;;5.18;3.10;;;23.70;70.30;;;;;;10404664;28;20387;-58
2023/07/15 19:49:23;;;;;;;6.38;3.53;;;23.70;70.30;;;;;;10417560;28;20507;-59
2023/07/15 19:54:24;;;;;;;6.82;3.38;;;23.60;70.30;;;;;;10434433;28;20564;-57
2023/07/15 19:59:28;;;;;;;5.63;3.10;;;23.60;70.40;;;;;;10438529;28;20035;-55
2023/07/15 20:04:29;;;;;;;5.07;3.35;;;23.60;70.10;;;;;;10405532;28;20022;-57
2023/07/15 20:09:29;;;;;;;7.25;3.63;;;23.50;70.00;;;;;;10438329;28;20370;-56
2023/07/15 20:14:30;;;;;;;6.93;2.88;;;23.60;69.80;;;;;;10435804;28;20520;-57
2023/07/15 20:19:31;;;;;;;8.25;3.15;;;23.50;70.10;;;;;;10429732;28;20033;-57
2023/07/15 20:24:31;;;;;;;5.93;3.33;;;23.50;70.20;;;;;;10445765;28;20112;-56
2023/07/15 20:29:32;;;;;;;4.70;2.97;;;23.50;69.70;;;;;;10443941;28;20029;-56
2023/07/15 20:34:33;;;;;;;5.28;3.33;;;23.50;69.50;;;;;;10445425;28;20113;-56
2023/07/15 20:39:34;;;;;;;5.28;3.17;;;23.50;70.00;;;;;;10444494;28;20048;-55
2023/07/15 20:44:35;;;;;;;5.00;3.55;;;23.40;69.40;;;;;;10443889;28;20375;-56
2023/07/15 20:49:35;;;;;;;4.03;2.92;;;23.50;69.40;;;;;;10442536;28;20104;-56
2023/07/15 20:54:36;;;;;;;5.45;3.63;;;23.50;69.40;;;;;;10442719;28;20071;-57
2023/07/15 20:59:36;;;;;;;6.72;2.85;;;23.40;69.20;;;;;;10442841;28;20113;-57
2023/07/15 21:04:37;;;;;;;3.65;2.70;;;23.40;69.20;;;;;;10442433;28;20052;-56
2023/07/15 21:09:38;;;;;;;6.20;2.60;;;23.40;69.10;;;;;;10430760;28;20017;-56
2023/07/15 21:14:38;;;;;;;5.10;2.80;;;23.40;69.10;;;;;;10411915;28;20447;-56
2023/07/15 21:19:39;;;;;;;4.68;2.67;;;23.40;69.10;;;;;;10442241;28;20120;-56
2023/07/15 21:24:40;;;;;;;5.78;2.60;;;23.40;69.10;;;;;;10442026;28;20100;-56
2023/07/15 21:29:42;;;;;;;6.63;2.85;;;23.40;69.10;;;;;;10448057;28;20132;-55
2023/07/15 21:34:42;;;;;;;5.78;2.85;;;23.40;69.10;;;;;;10449742;28;20028;-57
2023/07/15 21:39:43;;;;;;;5.57;3.10;;;23.40;69.20;;;;;;10449349;28;20080;-56
2023/07/15 21:44:44;;;;;;;4.80;2.35;;;23.40;69.10;;;;;;10450103;28;20490;-56
2023/07/15 21:49:45;;;;;;;4.13;3.05;;;23.40;69.10;;;;;;10448894;28;20081;-56
2023/07/15 21:54:45;;;;;;;4.28;2.65;;;23.40;69.10;;;;;;10449006;28;20025;-56
2023/07/15 21:59:46;;;;;;;4.47;2.60;;;23.40;69.20;;;;;;10449083;28;20033;-55
2023/07/15 22:04:47;;;;;;;4.68;2.55;;;23.40;69.10;;;;;;10447049;28;20506;-56
2023/07/15 22:09:47;;;;;;;5.00;2.50;;;23.40;69.60;;;;;;10435570;28;20033;-55
2023/07/15 22:14:48;;;;;;;7.85;3.47;;;23.40;69.00;;;;;;10420404;28;20052;-57
2023/07/15 22:19:49;;;;;;;3.30;2.10;;;23.30;69.00;;;;;;10448357;28;20547;-56
2023/07/15 22:24:50;;;;;;;4.07;3.20;;;23.40;69.00;;;;;;10447885;28;20381;-56
2023/07/15 22:29:50;;;;;;;4.18;2.42;;;23.30;69.00;;;;;;10447608;28;20039;-55
2023/07/15 22:34:51;;;;;;;5.20;3.05;;;23.30;68.90;;;;;;10447039;28;20021;-56
2023/07/15 22:39:52;;;;;;;4.18;2.15;;;23.30;68.90;;;;;;10446803;28;20654;-56
2023/07/15 22:44:52;;;;;;;3.75;2.53;;;23.30;68.90;;;;;;10446875;28;20052;-56
2023/07/15 22:49:53;;;;;;;2.97;1.83;;;23.30;68.90;;;;;;10446859;28;20108;-57
2023/07/15 22:54:54;;;;;;;6.47;2.90;;;23.30;68.90;;;;;;10446412;28;20417;-57
2023/07/15 22:59:54;;;;;;;4.43;2.38;;;23.30;68.90;;;;;;10446774;28;20040;-56
2023/07/15 23:04:55;;;;;;;3.83;2.70;;;23.30;68.90;;;;;;10446267;28;20048;-56
2023/07/15 23:09:56;;;;;;;3.83;2.85;;;23.30;68.90;;;;;;10432071;28;20112;-56
2023/07/15 23:14:57;;;;;;;3.10;2.30;;;23.30;68.90;;;;;;10419428;28;20502;-56
2023/07/15 23:20:04;;;;;;;4.70;2.58;;;23.30;68.90;;;;;;10445797;28;20045;-56
2023/07/15 23:25:05;;;;;;;3.92;2.78;;;23.20;68.80;;;;;;10445668;28;20022;-55
2023/07/15 23:30:06;;;;;;;5.53;2.50;;;23.20;68.70;;;;;;10445280;28;20033;-56
2023/07/15 23:35:07;;;;;;;4.38;2.22;;;23.20;68.70;;;;;;10445388;28;20204;-56
2023/07/15 23:40:09;;;;;;;5.75;2.42;;;23.20;68.60;;;;;;10444438;28;20048;-55
2023/07/15 23:45:10;;;;;;;4.25;2.55;;;23.20;68.60;;;;;;10444402;28;20104;-57
2023/07/15 23:50:10;;;;;;;3.90;2.33;;;23.20;68.60;;;;;;10444008;28;20097;-56
2023/07/15 23:55:11;;;;;;;4.07;1.88;;;23.20;68.50;;;;;;10426278;28;20551;-56
